sensor_id;sensor_type;location;lat;lon;timestamp;P1;durP1;ratioP1;P2;durP2;ratioP2
32327;SDS011;18806;51.558;5.100;2022-07-17T00:01:59;7.10;;;2.10;;
32327;SDS011;18806;51.558;5.100;2022-07-17T00:04:27;4.88;;;1.85;;
32327;SDS011;18806;51.558;5.100;2022-07-17T00:06:59;6.25;;;1.75;;
32327;SDS011;18806;51.558;5.100;2022-07-17T00:09:26;5.45;;;2.03;;
32327;SDS011;18806;51.558;5.100;2022-07-17T00:11:53;7.25;;;1.90;;
32327;SDS011;18806;51.558;5.100;2022-07-17T00:14:22;4.47;;;1.90;;
32327;SDS011;18806;51.558;5.100;2022-07-17T00:16:53;7.97;;;1.77;;
32327;SDS011;18806;51.558;5.100;2022-07-17T00:19:21;5.75;;;1.67;;
32327;SDS011;18806;51.558;5.100;2022-07-17T00:21:48;6.90;;;1.92;;
32327;SDS011;18806;51.558;5.100;2022-07-17T00:24:16;5.43;;;1.85;;
32327;SDS011;18806;51.558;5.100;2022-07-17T00:26:49;6.40;;;1.90;;
32327;SDS011;18806;51.558;5.100;2022-07-17T00:29:17;6.78;;;1.92;;
32327;SDS011;18806;51.558;5.100;2022-07-17T00:31:44;5.40;;;1.80;;
32327;SDS011;18806;51.558;5.100;2022-07-17T00:34:21;5.93;;;2.35;;
32327;SDS011;18806;51.558;5.100;2022-07-17T00:36:48;6.93;;;2.00;;
32327;SDS011;18806;51.558;5.100;2022-07-17T00:39:18;6.72;;;2.15;;
32327;SDS011;18806;51.558;5.100;2022-07-17T00:41:48;8.10;;;1.98;;
32327;SDS011;18806;51.558;5.100;2022-07-17T00:44:16;6.28;;;2.17;;
32327;SDS011;18806;51.558;5.100;2022-07-17T00:46:43;8.13;;;1.95;;
32327;SDS011;18806;51.558;5.100;2022-07-17T00:49:11;7.60;;;1.95;;
32327;SDS011;18806;51.558;5.100;2022-07-17T00:51:39;6.00;;;1.77;;
32327;SDS011;18806;51.558;5.100;2022-07-17T00:54:07;5.28;;;1.63;;
32327;SDS011;18806;51.558;5.100;2022-07-17T00:56:35;6.85;;;2.28;;
32327;SDS011;18806;51.558;5.100;2022-07-17T00:59:06;5.07;;;1.77;;
32327;SDS011;18806;51.558;5.100;2022-07-17T01:01:50;7.63;;;2.53;;
32327;SDS011;18806;51.558;5.100;2022-07-17T01:04:17;8.13;;;2.15;;
32327;SDS011;18806;51.558;5.100;2022-07-17T01:06:46;9.63;;;2.10;;
32327;SDS011;18806;51.558;5.100;2022-07-17T01:09:19;5.18;;;2.03;;
32327;SDS011;18806;51.558;5.100;2022-07-17T01:11:49;6.38;;;1.98;;
32327;SDS011;18806;51.558;5.100;2022-07-17T01:14:19;7.80;;;1.88;;
32327;SDS011;18806;51.558;5.100;2022-07-17T01:16:46;8.20;;;1.98;;
32327;SDS011;18806;51.558;5.100;2022-07-17T01:19:13;6.47;;;2.00;;
32327;SDS011;18806;51.558;5.100;2022-07-17T01:21:41;9.20;;;2.33;;
32327;SDS011;18806;51.558;5.100;2022-07-17T01:24:11;8.38;;;1.90;;
32327;SDS011;18806;51.558;5.100;2022-07-17T01:26:43;4.82;;;1.95;;
32327;SDS011;18806;51.558;5.100;2022-07-17T01:29:11;6.57;;;2.00;;
32327;SDS011;18806;51.558;5.100;2022-07-17T01:31:39;4.30;;;1.65;;
32327;SDS011;18806;51.558;5.100;2022-07-17T01:34:07;4.45;;;2.00;;
32327;SDS011;18806;51.558;5.100;2022-07-17T01:36:40;6.55;;;2.10;;
32327;SDS011;18806;51.558;5.100;2022-07-17T01:39:09;4.32;;;1.98;;
32327;SDS011;18806;51.558;5.100;2022-07-17T01:41:36;9.43;;;2.30;;
32327;SDS011;18806;51.558;5.100;2022-07-17T01:44:05;5.95;;;2.22;;
32327;SDS011;18806;51.558;5.100;2022-07-17T01:46:33;7.90;;;2.60;;
32327;SDS011;18806;51.558;5.100;2022-07-17T01:49:01;8.85;;;2.42;;
32327;SDS011;18806;51.558;5.100;2022-07-17T01:51:28;9.52;;;2.53;;
32327;SDS011;18806;51.558;5.100;2022-07-17T01:53:57;9.25;;;2.72;;
32327;SDS011;18806;51.558;5.100;2022-07-17T01:56:24;7.10;;;2.70;;
32327;SDS011;18806;51.558;5.100;2022-07-17T02:04:42;6.35;;;2.30;;
32327;SDS011;18806;51.558;5.100;2022-07-17T02:07:12;4.85;;;2.40;;
32327;SDS011;18806;51.558;5.100;2022-07-17T02:09:39;10.20;;;2.28;;
32327;SDS011;18806;51.558;5.100;2022-07-17T02:12:08;7.70;;;2.38;;
32327;SDS011;18806;51.558;5.100;2022-07-17T02:14:38;7.15;;;2.28;;
32327;SDS011;18806;51.558;5.100;2022-07-17T02:17:13;8.63;;;2.45;;
32327;SDS011;18806;51.558;5.100;2022-07-17T02:19:41;5.70;;;2.35;;
32327;SDS011;18806;51.558;5.100;2022-07-17T02:22:09;5.85;;;2.25;;
32327;SDS011;18806;51.558;5.100;2022-07-17T02:24:36;5.57;;;2.30;;
32327;SDS011;18806;51.558;5.100;2022-07-17T02:27:06;7.43;;;2.10;;
32327;SDS011;18806;51.558;5.100;2022-07-17T02:29:34;8.45;;;2.33;;
32327;SDS011;18806;51.558;5.100;2022-07-17T02:32:01;9.88;;;2.03;;
32327;SDS011;18806;51.558;5.100;2022-07-17T02:34:28;9.48;;;2.45;;
32327;SDS011;18806;51.558;5.100;2022-07-17T02:36:55;9.00;;;2.30;;
32327;SDS011;18806;51.558;5.100;2022-07-17T02:39:25;7.40;;;2.53;;
32327;SDS011;18806;51.558;5.100;2022-07-17T02:41:52;5.15;;;1.92;;
32327;SDS011;18806;51.558;5.100;2022-07-17T02:44:21;7.80;;;2.08;;
32327;SDS011;18806;51.558;5.100;2022-07-17T02:46:48;6.13;;;1.98;;
32327;SDS011;18806;51.558;5.100;2022-07-17T02:49:15;7.18;;;2.15;;
32327;SDS011;18806;51.558;5.100;2022-07-17T02:51:43;6.10;;;2.00;;
32327;SDS011;18806;51.558;5.100;2022-07-17T02:54:10;7.65;;;2.00;;
32327;SDS011;18806;51.558;5.100;2022-07-17T02:56:37;7.32;;;2.30;;
32327;SDS011;18806;51.558;5.100;2022-07-17T02:59:04;5.35;;;2.30;;
32327;SDS011;18806;51.558;5.100;2022-07-17T03:01:31;4.72;;;2.03;;
32327;SDS011;18806;51.558;5.100;2022-07-17T03:03:58;6.65;;;2.30;;
32327;SDS011;18806;51.558;5.100;2022-07-17T03:06:26;9.48;;;2.40;;
32327;SDS011;18806;51.558;5.100;2022-07-17T03:08:53;5.32;;;2.08;;
32327;SDS011;18806;51.558;5.100;2022-07-17T03:11:20;6.70;;;1.90;;
32327;SDS011;18806;51.558;5.100;2022-07-17T03:13:47;6.43;;;2.38;;
32327;SDS011;18806;51.558;5.100;2022-07-17T03:16:14;4.40;;;2.03;;
32327;SDS011;18806;51.558;5.100;2022-07-17T03:18:41;7.90;;;2.20;;
32327;SDS011;18806;51.558;5.100;2022-07-17T03:21:10;5.72;;;2.22;;
32327;SDS011;18806;51.558;5.100;2022-07-17T03:23:37;9.15;;;2.20;;
32327;SDS011;18806;51.558;5.100;2022-07-17T03:26:05;6.97;;;2.70;;
32327;SDS011;18806;51.558;5.100;2022-07-17T03:28:32;5.85;;;2.30;;
32327;SDS011;18806;51.558;5.100;2022-07-17T03:30:59;7.57;;;2.63;;
32327;SDS011;18806;51.558;5.100;2022-07-17T03:33:26;6.07;;;2.10;;
32327;SDS011;18806;51.558;5.100;2022-07-17T03:35:55;4.93;;;2.40;;
32327;SDS011;18806;51.558;5.100;2022-07-17T03:38:23;7.60;;;2.30;;
32327;SDS011;18806;51.558;5.100;2022-07-17T03:40:50;4.50;;;2.08;;
32327;SDS011;18806;51.558;5.100;2022-07-17T03:43:17;6.55;;;2.10;;
32327;SDS011;18806;51.558;5.100;2022-07-17T03:45:45;10.10;;;3.13;;
32327;SDS011;18806;51.558;5.100;2022-07-17T03:48:12;6.95;;;2.25;;
32327;SDS011;18806;51.558;5.100;2022-07-17T03:50:39;8.25;;;2.35;;
32327;SDS011;18806;51.558;5.100;2022-07-17T03:53:06;6.53;;;1.95;;
32327;SDS011;18806;51.558;5.100;2022-07-17T03:55:33;5.43;;;2.35;;
32327;SDS011;18806;51.558;5.100;2022-07-17T03:58:00;5.15;;;2.38;;
32327;SDS011;18806;51.558;5.100;2022-07-17T04:00:27;8.90;;;2.20;;
32327;SDS011;18806;51.558;5.100;2022-07-17T04:02:55;7.72;;;2.35;;
32327;SDS011;18806;51.558;5.100;2022-07-17T04:05:29;5.22;;;2.20;;
32327;SDS011;18806;51.558;5.100;2022-07-17T04:07:58;7.60;;;2.50;;
32327;SDS011;18806;51.558;5.100;2022-07-17T04:10:25;9.25;;;2.67;;
32327;SDS011;18806;51.558;5.100;2022-07-17T04:12:52;6.05;;;2.10;;
32327;SDS011;18806;51.558;5.100;2022-07-17T04:15:19;7.63;;;2.78;;
32327;SDS011;18806;51.558;5.100;2022-07-17T04:18:04;5.93;;;2.30;;
32327;SDS011;18806;51.558;5.100;2022-07-17T04:20:32;5.07;;;2.30;;
32327;SDS011;18806;51.558;5.100;2022-07-17T04:22:59;5.85;;;2.83;;
32327;SDS011;18806;51.558;5.100;2022-07-17T04:25:29;7.97;;;2.50;;
32327;SDS011;18806;51.558;5.100;2022-07-17T04:27:59;7.57;;;2.80;;
32327;SDS011;18806;51.558;5.100;2022-07-17T04:30:29;6.72;;;2.33;;
32327;SDS011;18806;51.558;5.100;2022-07-17T04:32:57;9.13;;;2.67;;
32327;SDS011;18806;51.558;5.100;2022-07-17T04:35:24;5.97;;;2.22;;
32327;SDS011;18806;51.558;5.100;2022-07-17T04:37:52;5.78;;;2.58;;
32327;SDS011;18806;51.558;5.100;2022-07-17T04:40:20;8.65;;;2.72;;
32327;SDS011;18806;51.558;5.100;2022-07-17T04:42:50;4.90;;;2.42;;
32327;SDS011;18806;51.558;5.100;2022-07-17T04:45:17;6.97;;;2.20;;
32327;SDS011;18806;51.558;5.100;2022-07-17T04:47:44;7.40;;;2.50;;
32327;SDS011;18806;51.558;5.100;2022-07-17T04:50:12;6.10;;;2.58;;
32327;SDS011;18806;51.558;5.100;2022-07-17T04:52:39;5.60;;;2.50;;
32327;SDS011;18806;51.558;5.100;2022-07-17T04:55:06;11.27;;;2.70;;
32327;SDS011;18806;51.558;5.100;2022-07-17T04:57:33;6.80;;;2.83;;
32327;SDS011;18806;51.558;5.100;2022-07-17T05:00:03;7.72;;;2.38;;
32327;SDS011;18806;51.558;5.100;2022-07-17T05:02:31;8.23;;;2.85;;
32327;SDS011;18806;51.558;5.100;2022-07-17T05:04:58;6.13;;;2.95;;
32327;SDS011;18806;51.558;5.100;2022-07-17T05:07:25;11.65;;;2.92;;
32327;SDS011;18806;51.558;5.100;2022-07-17T05:09:55;8.15;;;3.00;;
32327;SDS011;18806;51.558;5.100;2022-07-17T05:12:25;5.95;;;3.20;;
32327;SDS011;18806;51.558;5.100;2022-07-17T05:14:54;6.95;;;3.03;;
32327;SDS011;18806;51.558;5.100;2022-07-17T05:20:00;7.85;;;3.38;;
32327;SDS011;18806;51.558;5.100;2022-07-17T05:22:27;7.47;;;3.35;;
32327;SDS011;18806;51.558;5.100;2022-07-17T05:24:54;9.10;;;3.22;;
32327;SDS011;18806;51.558;5.100;2022-07-17T05:27:21;7.15;;;2.95;;
32327;SDS011;18806;51.558;5.100;2022-07-17T05:29:51;7.60;;;3.53;;
32327;SDS011;18806;51.558;5.100;2022-07-17T05:32:18;5.53;;;2.72;;
32327;SDS011;18806;51.558;5.100;2022-07-17T05:34:45;8.60;;;3.60;;
32327;SDS011;18806;51.558;5.100;2022-07-17T05:37:12;8.15;;;3.05;;
32327;SDS011;18806;51.558;5.100;2022-07-17T05:39:40;7.90;;;2.90;;
32327;SDS011;18806;51.558;5.100;2022-07-17T05:42:07;9.32;;;3.45;;
32327;SDS011;18806;51.558;5.100;2022-07-17T05:44:34;3.90;;;2.80;;
32327;SDS011;18806;51.558;5.100;2022-07-17T05:47:01;10.35;;;3.28;;
32327;SDS011;18806;51.558;5.100;2022-07-17T05:49:28;7.68;;;3.25;;
32327;SDS011;18806;51.558;5.100;2022-07-17T05:51:55;9.85;;;3.30;;
32327;SDS011;18806;51.558;5.100;2022-07-17T05:54:22;6.25;;;3.55;;
32327;SDS011;18806;51.558;5.100;2022-07-17T05:56:51;8.80;;;3.20;;
32327;SDS011;18806;51.558;5.100;2022-07-17T05:59:18;5.57;;;2.88;;
32327;SDS011;18806;51.558;5.100;2022-07-17T06:01:51;7.45;;;3.05;;
32327;SDS011;18806;51.558;5.100;2022-07-17T06:04:23;7.18;;;2.80;;
32327;SDS011;18806;51.558;5.100;2022-07-17T06:06:50;6.63;;;2.92;;
32327;SDS011;18806;51.558;5.100;2022-07-17T06:09:23;7.60;;;2.78;;
32327;SDS011;18806;51.558;5.100;2022-07-17T06:11:53;6.78;;;3.05;;
32327;SDS011;18806;51.558;5.100;2022-07-17T06:14:20;5.38;;;2.90;;
32327;SDS011;18806;51.558;5.100;2022-07-17T06:16:50;7.57;;;2.63;;
32327;SDS011;18806;51.558;5.100;2022-07-17T06:19:19;6.38;;;2.70;;
32327;SDS011;18806;51.558;5.100;2022-07-17T06:21:48;6.20;;;2.42;;
32327;SDS011;18806;51.558;5.100;2022-07-17T06:24:15;4.65;;;2.35;;
32327;SDS011;18806;51.558;5.100;2022-07-17T06:26:43;5.13;;;2.53;;
32327;SDS011;18806;51.558;5.100;2022-07-17T06:29:12;8.80;;;2.40;;
32327;SDS011;18806;51.558;5.100;2022-07-17T06:31:46;8.05;;;2.45;;
32327;SDS011;18806;51.558;5.100;2022-07-17T06:34:13;6.22;;;2.67;;
32327;SDS011;18806;51.558;5.100;2022-07-17T06:36:43;9.15;;;2.60;;
32327;SDS011;18806;51.558;5.100;2022-07-17T06:39:10;8.45;;;2.78;;
32327;SDS011;18806;51.558;5.100;2022-07-17T06:41:37;4.88;;;2.10;;
32327;SDS011;18806;51.558;5.100;2022-07-17T06:44:04;6.03;;;2.10;;
32327;SDS011;18806;51.558;5.100;2022-07-17T06:46:31;6.13;;;2.17;;
32327;SDS011;18806;51.558;5.100;2022-07-17T06:49:05;6.65;;;2.78;;
32327;SDS011;18806;51.558;5.100;2022-07-17T06:51:36;8.45;;;2.35;;
32327;SDS011;18806;51.558;5.100;2022-07-17T06:54:03;8.38;;;2.30;;
32327;SDS011;18806;51.558;5.100;2022-07-17T06:56:34;9.10;;;2.60;;
32327;SDS011;18806;51.558;5.100;2022-07-17T06:59:02;5.85;;;2.05;;
32327;SDS011;18806;51.558;5.100;2022-07-17T07:01:38;6.20;;;2.63;;
32327;SDS011;18806;51.558;5.100;2022-07-17T07:04:12;5.22;;;1.90;;
32327;SDS011;18806;51.558;5.100;2022-07-17T07:06:47;6.47;;;2.00;;
32327;SDS011;18806;51.558;5.100;2022-07-17T07:09:14;8.20;;;2.90;;
32327;SDS011;18806;51.558;5.100;2022-07-17T07:11:42;9.43;;;2.38;;
32327;SDS011;18806;51.558;5.100;2022-07-17T07:14:09;7.85;;;2.22;;
32327;SDS011;18806;51.558;5.100;2022-07-17T07:16:36;5.00;;;2.28;;
32327;SDS011;18806;51.558;5.100;2022-07-17T07:19:04;7.05;;;2.65;;
32327;SDS011;18806;51.558;5.100;2022-07-17T07:21:31;6.45;;;2.72;;
32327;SDS011;18806;51.558;5.100;2022-07-17T07:23:58;8.40;;;2.30;;
32327;SDS011;18806;51.558;5.100;2022-07-17T07:26:25;11.38;;;2.78;;
32327;SDS011;18806;51.558;5.100;2022-07-17T07:28:53;7.47;;;2.47;;
32327;SDS011;18806;51.558;5.100;2022-07-17T07:31:20;5.88;;;1.88;;
32327;SDS011;18806;51.558;5.100;2022-07-17T07:33:51;6.70;;;1.77;;
32327;SDS011;18806;51.558;5.100;2022-07-17T07:36:18;5.55;;;1.50;;
32327;SDS011;18806;51.558;5.100;2022-07-17T07:38:50;6.32;;;1.50;;
32327;SDS011;18806;51.558;5.100;2022-07-17T07:41:17;5.68;;;1.52;;
32327;SDS011;18806;51.558;5.100;2022-07-17T07:43:44;6.35;;;1.27;;
32327;SDS011;18806;51.558;5.100;2022-07-17T07:46:11;4.65;;;1.15;;
32327;SDS011;18806;51.558;5.100;2022-07-17T07:48:39;6.97;;;1.40;;
32327;SDS011;18806;51.558;5.100;2022-07-17T07:51:08;7.05;;;1.73;;
32327;SDS011;18806;51.558;5.100;2022-07-17T07:53:35;7.25;;;2.22;;
32327;SDS011;18806;51.558;5.100;2022-07-17T07:56:02;4.68;;;1.25;;
32327;SDS011;18806;51.558;5.100;2022-07-17T07:58:29;5.80;;;1.50;;
32327;SDS011;18806;51.558;5.100;2022-07-17T08:13:23;4.53;;;1.00;;
32327;SDS011;18806;51.558;5.100;2022-07-17T08:15:50;5.72;;;1.60;;
32327;SDS011;18806;51.558;5.100;2022-07-17T08:18:17;5.50;;;1.40;;
32327;SDS011;18806;51.558;5.100;2022-07-17T08:20:52;7.50;;;1.35;;
32327;SDS011;18806;51.558;5.100;2022-07-17T08:23:20;3.75;;;1.42;;
32327;SDS011;18806;51.558;5.100;2022-07-17T08:25:47;5.40;;;1.20;;
32327;SDS011;18806;51.558;5.100;2022-07-17T08:28:14;5.43;;;1.55;;
32327;SDS011;18806;51.558;5.100;2022-07-17T08:30:42;6.30;;;1.30;;
32327;SDS011;18806;51.558;5.100;2022-07-17T08:33:12;5.38;;;1.40;;
32327;SDS011;18806;51.558;5.100;2022-07-17T08:35:41;5.70;;;1.40;;
32327;SDS011;18806;51.558;5.100;2022-07-17T08:38:08;8.23;;;1.42;;
32327;SDS011;18806;51.558;5.100;2022-07-17T08:40:36;5.35;;;1.17;;
32327;SDS011;18806;51.558;5.100;2022-07-17T08:43:04;5.35;;;1.20;;
32327;SDS011;18806;51.558;5.100;2022-07-17T08:45:34;4.43;;;1.52;;
32327;SDS011;18806;51.558;5.100;2022-07-17T08:48:06;2.42;;;1.00;;
32327;SDS011;18806;51.558;5.100;2022-07-17T08:50:35;3.30;;;1.27;;
32327;SDS011;18806;51.558;5.100;2022-07-17T08:53:02;4.65;;;1.08;;
32327;SDS011;18806;51.558;5.100;2022-07-17T08:55:29;5.07;;;1.17;;
32327;SDS011;18806;51.558;5.100;2022-07-17T08:57:57;4.97;;;1.10;;
32327;SDS011;18806;51.558;5.100;2022-07-17T09:00:24;5.82;;;1.20;;
32327;SDS011;18806;51.558;5.100;2022-07-17T09:02:56;3.53;;;1.02;;
32327;SDS011;18806;51.558;5.100;2022-07-17T09:05:25;3.50;;;1.05;;
32327;SDS011;18806;51.558;5.100;2022-07-17T09:07:54;3.28;;;0.90;;
32327;SDS011;18806;51.558;5.100;2022-07-17T09:15:25;4.53;;;0.98;;
32327;SDS011;18806;51.558;5.100;2022-07-17T09:17:55;5.05;;;1.02;;
32327;SDS011;18806;51.558;5.100;2022-07-17T09:20:26;5.07;;;1.33;;
32327;SDS011;18806;51.558;5.100;2022-07-17T09:22:57;4.63;;;1.40;;
32327;SDS011;18806;51.558;5.100;2022-07-17T09:25:33;4.82;;;1.30;;
32327;SDS011;18806;51.558;5.100;2022-07-17T09:28:01;5.00;;;1.30;;
32327;SDS011;18806;51.558;5.100;2022-07-17T09:30:29;4.28;;;1.17;;
32327;SDS011;18806;51.558;5.100;2022-07-17T09:32:57;5.28;;;1.25;;
32327;SDS011;18806;51.558;5.100;2022-07-17T09:35:25;3.63;;;1.23;;
32327;SDS011;18806;51.558;5.100;2022-07-17T09:37:58;5.13;;;1.30;;
32327;SDS011;18806;51.558;5.100;2022-07-17T09:40:27;5.22;;;1.10;;
32327;SDS011;18806;51.558;5.100;2022-07-17T09:43:13;7.03;;;1.20;;
32327;SDS011;18806;51.558;5.100;2022-07-17T09:45:40;4.47;;;1.65;;
32327;SDS011;18806;51.558;5.100;2022-07-17T09:48:09;6.07;;;1.17;;
32327;SDS011;18806;51.558;5.100;2022-07-17T09:50:36;5.63;;;1.42;;
32327;SDS011;18806;51.558;5.100;2022-07-17T09:53:08;6.45;;;1.35;;
32327;SDS011;18806;51.558;5.100;2022-07-17T09:55:36;6.47;;;1.45;;
32327;SDS011;18806;51.558;5.100;2022-07-17T09:58:14;4.40;;;1.30;;
32327;SDS011;18806;51.558;5.100;2022-07-17T10:00:42;4.65;;;1.10;;
32327;SDS011;18806;51.558;5.100;2022-07-17T10:03:09;4.70;;;1.20;;
32327;SDS011;18806;51.558;5.100;2022-07-17T10:05:36;5.13;;;1.20;;
32327;SDS011;18806;51.558;5.100;2022-07-17T10:08:11;4.20;;;1.30;;
32327;SDS011;18806;51.558;5.100;2022-07-17T10:10:38;4.63;;;1.20;;
32327;SDS011;18806;51.558;5.100;2022-07-17T10:13:06;4.85;;;1.58;;
32327;SDS011;18806;51.558;5.100;2022-07-17T10:15:34;3.40;;;1.23;;
32327;SDS011;18806;51.558;5.100;2022-07-17T10:18:03;4.43;;;1.05;;
32327;SDS011;18806;51.558;5.100;2022-07-17T10:20:30;4.93;;;1.30;;
32327;SDS011;18806;51.558;5.100;2022-07-17T10:23:10;6.18;;;1.60;;
32327;SDS011;18806;51.558;5.100;2022-07-17T10:25:38;5.38;;;1.20;;
32327;SDS011;18806;51.558;5.100;2022-07-17T10:28:06;3.53;;;1.25;;
32327;SDS011;18806;51.558;5.100;2022-07-17T10:30:34;5.57;;;1.80;;
32327;SDS011;18806;51.558;5.100;2022-07-17T10:33:04;3.20;;;1.15;;
32327;SDS011;18806;51.558;5.100;2022-07-17T10:35:47;6.95;;;1.60;;
32327;SDS011;18806;51.558;5.100;2022-07-17T10:38:16;3.90;;;1.15;;
32327;SDS011;18806;51.558;5.100;2022-07-17T10:40:43;5.28;;;1.30;;
32327;SDS011;18806;51.558;5.100;2022-07-17T10:43:10;3.40;;;1.00;;
32327;SDS011;18806;51.558;5.100;2022-07-17T10:45:41;5.25;;;1.30;;
32327;SDS011;18806;51.558;5.100;2022-07-17T10:48:10;3.70;;;1.27;;
32327;SDS011;18806;51.558;5.100;2022-07-17T10:50:39;5.40;;;1.10;;
32327;SDS011;18806;51.558;5.100;2022-07-17T10:55:35;3.70;;;1.02;;
32327;SDS011;18806;51.558;5.100;2022-07-17T10:58:03;4.72;;;1.10;;
32327;SDS011;18806;51.558;5.100;2022-07-17T11:00:31;5.07;;;1.20;;
32327;SDS011;18806;51.558;5.100;2022-07-17T11:03:07;3.38;;;1.27;;
32327;SDS011;18806;51.558;5.100;2022-07-17T11:05:35;3.33;;;1.10;;
32327;SDS011;18806;51.558;5.100;2022-07-17T11:08:02;3.80;;;1.40;;
32327;SDS011;18806;51.558;5.100;2022-07-17T11:10:35;3.13;;;1.38;;
32327;SDS011;18806;51.558;5.100;2022-07-17T11:13:10;2.67;;;1.30;;
32327;SDS011;18806;51.558;5.100;2022-07-17T11:15:47;3.97;;;1.40;;
32327;SDS011;18806;51.558;5.100;2022-07-17T11:18:16;5.00;;;1.42;;
32327;SDS011;18806;51.558;5.100;2022-07-17T11:20:51;7.68;;;1.55;;
32327;SDS011;18806;51.558;5.100;2022-07-17T11:23:19;3.80;;;1.40;;
32327;SDS011;18806;51.558;5.100;2022-07-17T11:26:06;4.80;;;1.60;;
32327;SDS011;18806;51.558;5.100;2022-07-17T11:31:01;4.78;;;1.48;;
32327;SDS011;18806;51.558;5.100;2022-07-17T11:33:28;4.32;;;1.48;;
32327;SDS011;18806;51.558;5.100;2022-07-17T11:35:58;5.00;;;1.52;;
32327;SDS011;18806;51.558;5.100;2022-07-17T11:38:28;3.25;;;1.30;;
32327;SDS011;18806;51.558;5.100;2022-07-17T11:40:59;6.90;;;1.52;;
32327;SDS011;18806;51.558;5.100;2022-07-17T11:43:27;3.80;;;1.30;;
32327;SDS011;18806;51.558;5.100;2022-07-17T11:45:54;6.75;;;1.98;;
32327;SDS011;18806;51.558;5.100;2022-07-17T11:48:22;3.63;;;1.70;;
32327;SDS011;18806;51.558;5.100;2022-07-17T11:50:52;4.53;;;1.63;;
32327;SDS011;18806;51.558;5.100;2022-07-17T11:53:39;6.15;;;1.58;;
32327;SDS011;18806;51.558;5.100;2022-07-17T11:56:06;4.32;;;1.80;;
32327;SDS011;18806;51.558;5.100;2022-07-17T11:58:43;4.95;;;1.80;;
32327;SDS011;18806;51.558;5.100;2022-07-17T12:01:11;5.05;;;2.00;;
32327;SDS011;18806;51.558;5.100;2022-07-17T12:03:38;6.13;;;1.83;;
32327;SDS011;18806;51.558;5.100;2022-07-17T12:06:06;6.50;;;1.80;;
32327;SDS011;18806;51.558;5.100;2022-07-17T12:08:35;4.18;;;1.67;;
32327;SDS011;18806;51.558;5.100;2022-07-17T12:11:04;6.30;;;2.35;;
32327;SDS011;18806;51.558;5.100;2022-07-17T12:13:37;4.25;;;1.80;;
32327;SDS011;18806;51.558;5.100;2022-07-17T12:16:27;9.13;;;2.35;;
32327;SDS011;18806;51.558;5.100;2022-07-17T12:18:55;6.38;;;2.20;;
32327;SDS011;18806;51.558;5.100;2022-07-17T12:21:22;6.68;;;2.35;;
32327;SDS011;18806;51.558;5.100;2022-07-17T12:24:03;5.43;;;2.30;;
32327;SDS011;18806;51.558;5.100;2022-07-17T12:26:31;5.80;;;2.20;;
32327;SDS011;18806;51.558;5.100;2022-07-17T12:29:01;6.70;;;2.20;;
32327;SDS011;18806;51.558;5.100;2022-07-17T12:31:31;6.63;;;2.10;;
32327;SDS011;18806;51.558;5.100;2022-07-17T12:33:58;6.80;;;2.28;;
32327;SDS011;18806;51.558;5.100;2022-07-17T12:36:25;6.32;;;2.15;;
32327;SDS011;18806;51.558;5.100;2022-07-17T12:38:59;6.28;;;2.20;;
32327;SDS011;18806;51.558;5.100;2022-07-17T12:41:29;13.00;;;2.30;;
32327;SDS011;18806;51.558;5.100;2022-07-17T12:44:05;8.68;;;2.60;;
32327;SDS011;18806;51.558;5.100;2022-07-17T12:46:32;7.78;;;2.10;;
32327;SDS011;18806;51.558;5.100;2022-07-17T12:55:28;6.78;;;2.40;;
32327;SDS011;18806;51.558;5.100;2022-07-17T13:06:58;5.43;;;2.28;;
32327;SDS011;18806;51.558;5.100;2022-07-17T13:19:14;4.05;;;2.10;;
32327;SDS011;18806;51.558;5.100;2022-07-17T13:24:42;5.72;;;2.42;;
32327;SDS011;18806;51.558;5.100;2022-07-17T13:27:29;5.28;;;2.50;;
32327;SDS011;18806;51.558;5.100;2022-07-17T13:30:46;5.30;;;2.28;;
32327;SDS011;18806;51.558;5.100;2022-07-17T13:33:14;5.07;;;2.08;;
32327;SDS011;18806;51.558;5.100;2022-07-17T13:35:48;5.47;;;2.47;;
32327;SDS011;18806;51.558;5.100;2022-07-17T13:38:29;4.53;;;2.45;;
32327;SDS011;18806;51.558;5.100;2022-07-17T13:41:10;5.05;;;2.42;;
32327;SDS011;18806;51.558;5.100;2022-07-17T13:46:50;7.20;;;2.35;;
32327;SDS011;18806;51.558;5.100;2022-07-17T13:56:38;5.33;;;2.10;;
32327;SDS011;18806;51.558;5.100;2022-07-17T13:59:07;4.38;;;1.63;;
32327;SDS011;18806;51.558;5.100;2022-07-17T14:02:07;3.50;;;1.80;;
32327;SDS011;18806;51.558;5.100;2022-07-17T14:04:35;6.55;;;2.00;;
32327;SDS011;18806;51.558;5.100;2022-07-17T14:07:03;5.47;;;1.98;;
32327;SDS011;18806;51.558;5.100;2022-07-17T14:13:20;4.88;;;1.98;;
32327;SDS011;18806;51.558;5.100;2022-07-17T14:15:59;4.25;;;1.92;;
32327;SDS011;18806;51.558;5.100;2022-07-17T14:28:17;4.78;;;1.75;;
32327;SDS011;18806;51.558;5.100;2022-07-17T15:12:52;5.63;;;1.70;;
32327;SDS011;18806;51.558;5.100;2022-07-17T18:02:49;5.68;;;1.80;;
32327;SDS011;18806;51.558;5.100;2022-07-17T18:06:08;4.75;;;1.80;;
32327;SDS011;18806;51.558;5.100;2022-07-17T18:12:18;4.43;;;2.00;;
32327;SDS011;18806;51.558;5.100;2022-07-17T18:33:26;4.97;;;1.67;;
32327;SDS011;18806;51.558;5.100;2022-07-17T18:50:21;3.75;;;1.45;;
32327;SDS011;18806;51.558;5.100;2022-07-17T20:16:44;4.07;;;1.90;;
32327;SDS011;18806;51.558;5.100;2022-07-17T20:19:13;3.90;;;1.30;;
32327;SDS011;18806;51.558;5.100;2022-07-17T20:21:40;5.22;;;1.65;;
32327;SDS011;18806;51.558;5.100;2022-07-17T20:24:08;4.30;;;1.55;;
32327;SDS011;18806;51.558;5.100;2022-07-17T20:26:43;8.15;;;1.88;;
32327;SDS011;18806;51.558;5.100;2022-07-17T20:29:12;5.07;;;1.85;;
32327;SDS011;18806;51.558;5.100;2022-07-17T20:31:39;3.97;;;1.80;;
32327;SDS011;18806;51.558;5.100;2022-07-17T20:34:06;3.25;;;1.60;;
32327;SDS011;18806;51.558;5.100;2022-07-17T20:36:36;3.47;;;1.55;;
32327;SDS011;18806;51.558;5.100;2022-07-17T20:39:03;5.13;;;1.77;;
32327;SDS011;18806;51.558;5.100;2022-07-17T20:41:31;4.47;;;1.40;;
32327;SDS011;18806;51.558;5.100;2022-07-17T20:44:04;4.15;;;1.50;;
32327;SDS011;18806;51.558;5.100;2022-07-17T20:46:34;3.58;;;1.42;;
32327;SDS011;18806;51.558;5.100;2022-07-17T20:49:02;4.10;;;1.80;;
32327;SDS011;18806;51.558;5.100;2022-07-17T20:51:31;5.55;;;1.70;;
32327;SDS011;18806;51.558;5.100;2022-07-17T20:53:58;3.88;;;1.88;;
32327;SDS011;18806;51.558;5.100;2022-07-17T20:56:27;4.15;;;1.42;;
32327;SDS011;18806;51.558;5.100;2022-07-17T20:58:54;4.07;;;1.55;;
32327;SDS011;18806;51.558;5.100;2022-07-17T21:01:21;5.45;;;1.90;;
32327;SDS011;18806;51.558;5.100;2022-07-17T21:03:49;3.50;;;1.65;;
32327;SDS011;18806;51.558;5.100;2022-07-17T21:06:16;5.82;;;1.67;;
32327;SDS011;18806;51.558;5.100;2022-07-17T21:08:43;4.78;;;2.08;;
32327;SDS011;18806;51.558;5.100;2022-07-17T21:11:14;4.53;;;1.50;;
32327;SDS011;18806;51.558;5.100;2022-07-17T21:13:43;3.00;;;1.38;;
32327;SDS011;18806;51.558;5.100;2022-07-17T21:16:12;4.10;;;1.52;;
32327;SDS011;18806;51.558;5.100;2022-07-17T21:18:41;4.60;;;1.50;;
32327;SDS011;18806;51.558;5.100;2022-07-17T21:21:10;3.45;;;1.58;;
32327;SDS011;18806;51.558;5.100;2022-07-17T21:23:39;5.50;;;1.60;;
32327;SDS011;18806;51.558;5.100;2022-07-17T21:26:06;4.25;;;1.60;;
32327;SDS011;18806;51.558;5.100;2022-07-17T21:28:34;4.03;;;2.00;;
32327;SDS011;18806;51.558;5.100;2022-07-17T21:31:02;3.85;;;1.85;;
32327;SDS011;18806;51.558;5.100;2022-07-17T21:33:30;5.15;;;2.00;;
32327;SDS011;18806;51.558;5.100;2022-07-17T21:36:00;5.07;;;2.03;;
32327;SDS011;18806;51.558;5.100;2022-07-17T21:38:33;4.18;;;1.58;;
32327;SDS011;18806;51.558;5.100;2022-07-17T21:41:20;5.28;;;1.50;;
32327;SDS011;18806;51.558;5.100;2022-07-17T21:43:47;4.22;;;1.92;;
32327;SDS011;18806;51.558;5.100;2022-07-17T21:46:14;3.42;;;1.77;;
32327;SDS011;18806;51.558;5.100;2022-07-17T21:48:45;3.90;;;1.50;;
32327;SDS011;18806;51.558;5.100;2022-07-17T21:51:15;4.53;;;1.60;;
32327;SDS011;18806;51.558;5.100;2022-07-17T21:53:42;5.43;;;1.65;;
32327;SDS011;18806;51.558;5.100;2022-07-17T21:56:10;4.47;;;1.80;;